sensor_id;sensor_type;location;lat;lon;timestamp;temperature;humidity
15426;DHT22;7812;50.072;7.036;2023-07-31T00:00:51;18.20;99.90
15426;DHT22;7812;50.072;7.036;2023-07-31T00:03:17;18.10;99.90
15426;DHT22;7812;50.072;7.036;2023-07-31T00:05:43;18.10;99.90
15426;DHT22;7812;50.072;7.036;2023-07-31T00:08:09;18.10;99.90
15426;DHT22;7812;50.072;7.036;2023-07-31T00:10:34;18.10;99.90
15426;DHT22;7812;50.072;7.036;2023-07-31T00:13:00;18.10;99.90
15426;DHT22;7812;50.072;7.036;2023-07-31T00:15:26;18.10;99.90
15426;DHT22;7812;50.072;7.036;2023-07-31T00:17:51;18.10;99.90
15426;DHT22;7812;50.072;7.036;2023-07-31T00:20:17;18.10;99.90
15426;DHT22;7812;50.072;7.036;2023-07-31T00:22:43;18.10;99.90
15426;DHT22;7812;50.072;7.036;2023-07-31T00:25:08;18.10;99.90
15426;DHT22;7812;50.072;7.036;2023-07-31T00:27:34;18.10;99.90
15426;DHT22;7812;50.072;7.036;2023-07-31T00:30:00;18.10;99.90
15426;DHT22;7812;50.072;7.036;2023-07-31T00:32:25;18.10;99.90
15426;DHT22;7812;50.072;7.036;2023-07-31T00:34:51;18.10;99.90
15426;DHT22;7812;50.072;7.036;2023-07-31T00:37:16;18.00;99.90
15426;DHT22;7812;50.072;7.036;2023-07-31T00:39:42;18.10;99.90
15426;DHT22;7812;50.072;7.036;2023-07-31T00:42:08;18.00;99.90
15426;DHT22;7812;50.072;7.036;2023-07-31T00:44:33;17.90;99.90
15426;DHT22;7812;50.072;7.036;2023-07-31T00:46:59;18.00;99.90
15426;DHT22;7812;50.072;7.036;2023-07-31T00:49:26;17.90;99.90
15426;DHT22;7812;50.072;7.036;2023-07-31T00:51:52;17.90;99.90
15426;DHT22;7812;50.072;7.036;2023-07-31T00:54:18;17.90;99.90
15426;DHT22;7812;50.072;7.036;2023-07-31T00:56:45;17.90;99.90
15426;DHT22;7812;50.072;7.036;2023-07-31T00:59:13;17.90;99.90
15426;DHT22;7812;50.072;7.036;2023-07-31T01:01:40;17.90;99.90
15426;DHT22;7812;50.072;7.036;2023-07-31T01:04:06;17.90;99.90
15426;DHT22;7812;50.072;7.036;2023-07-31T01:07:01;17.90;99.90
15426;DHT22;7812;50.072;7.036;2023-07-31T01:12:02;17.80;99.90
15426;DHT22;7812;50.072;7.036;2023-07-31T01:14:28;17.80;99.90
15426;DHT22;7812;50.072;7.036;2023-07-31T01:16:54;17.80;99.90
15426;DHT22;7812;50.072;7.036;2023-07-31T01:19:22;17.90;99.90
15426;DHT22;7812;50.072;7.036;2023-07-31T01:24:28;17.70;99.90
15426;DHT22;7812;50.072;7.036;2023-07-31T01:27:08;17.60;99.90
15426;DHT22;7812;50.072;7.036;2023-07-31T01:32:22;17.50;99.90
15426;DHT22;7812;50.072;7.036;2023-07-31T01:34:48;17.50;99.90
15426;DHT22;7812;50.072;7.036;2023-07-31T01:37:15;17.40;99.90
15426;DHT22;7812;50.072;7.036;2023-07-31T01:39:40;17.40;99.90
15426;DHT22;7812;50.072;7.036;2023-07-31T01:42:07;17.40;99.90
15426;DHT22;7812;50.072;7.036;2023-07-31T01:44:33;17.40;99.90
15426;DHT22;7812;50.072;7.036;2023-07-31T01:46:58;17.40;99.90
15426;DHT22;7812;50.072;7.036;2023-07-31T01:49:25;17.30;99.90
15426;DHT22;7812;50.072;7.036;2023-07-31T01:51:51;17.30;99.90
15426;DHT22;7812;50.072;7.036;2023-07-31T01:54:17;17.30;99.90
15426;DHT22;7812;50.072;7.036;2023-07-31T01:56:42;17.20;99.90
15426;DHT22;7812;50.072;7.036;2023-07-31T01:59:08;17.20;99.90
15426;DHT22;7812;50.072;7.036;2023-07-31T02:01:34;17.20;99.90
15426;DHT22;7812;50.072;7.036;2023-07-31T02:03:59;17.20;99.90
15426;DHT22;7812;50.072;7.036;2023-07-31T02:06:25;17.20;99.90
15426;DHT22;7812;50.072;7.036;2023-07-31T02:08:51;17.10;99.90
15426;DHT22;7812;50.072;7.036;2023-07-31T02:11:16;17.10;99.90
15426;DHT22;7812;50.072;7.036;2023-07-31T02:13:42;17.20;99.90
15426;DHT22;7812;50.072;7.036;2023-07-31T02:16:07;17.10;99.90
15426;DHT22;7812;50.072;7.036;2023-07-31T02:18:33;17.10;99.90
15426;DHT22;7812;50.072;7.036;2023-07-31T02:20:59;17.10;99.90
15426;DHT22;7812;50.072;7.036;2023-07-31T02:23:25;17.10;99.90
15426;DHT22;7812;50.072;7.036;2023-07-31T02:25:51;17.10;99.90
15426;DHT22;7812;50.072;7.036;2023-07-31T02:28:17;17.10;99.90
15426;DHT22;7812;50.072;7.036;2023-07-31T02:30:45;17.20;99.90
15426;DHT22;7812;50.072;7.036;2023-07-31T02:33:15;17.10;99.90
15426;DHT22;7812;50.072;7.036;2023-07-31T02:35:41;17.10;99.90
15426;DHT22;7812;50.072;7.036;2023-07-31T02:38:07;17.10;99.90
15426;DHT22;7812;50.072;7.036;2023-07-31T02:40:33;17.10;99.90
15426;DHT22;7812;50.072;7.036;2023-07-31T02:42:58;17.10;99.90
15426;DHT22;7812;50.072;7.036;2023-07-31T02:45:24;17.10;99.90
15426;DHT22;7812;50.072;7.036;2023-07-31T02:47:50;17.10;99.90
15426;DHT22;7812;50.072;7.036;2023-07-31T02:50:15;17.00;99.90
15426;DHT22;7812;50.072;7.036;2023-07-31T02:52:41;17.00;99.90
15426;DHT22;7812;50.072;7.036;2023-07-31T02:55:07;17.10;99.90
15426;DHT22;7812;50.072;7.036;2023-07-31T02:57:32;17.10;99.90
15426;DHT22;7812;50.072;7.036;2023-07-31T02:59:58;17.00;99.90
15426;DHT22;7812;50.072;7.036;2023-07-31T03:02:24;17.10;99.90
15426;DHT22;7812;50.072;7.036;2023-07-31T03:04:50;17.00;99.90
15426;DHT22;7812;50.072;7.036;2023-07-31T03:07:16;16.90;99.90
15426;DHT22;7812;50.072;7.036;2023-07-31T03:09:42;16.80;99.90
15426;DHT22;7812;50.072;7.036;2023-07-31T03:12:08;16.70;99.90
15426;DHT22;7812;50.072;7.036;2023-07-31T03:14:34;16.60;99.90
15426;DHT22;7812;50.072;7.036;2023-07-31T03:16:59;16.60;99.90
15426;DHT22;7812;50.072;7.036;2023-07-31T03:19:25;16.50;99.90
15426;DHT22;7812;50.072;7.036;2023-07-31T03:21:51;16.50;99.90
15426;DHT22;7812;50.072;7.036;2023-07-31T03:24:16;16.50;99.90
15426;DHT22;7812;50.072;7.036;2023-07-31T03:26:42;16.50;99.90
15426;DHT22;7812;50.072;7.036;2023-07-31T03:29:08;16.50;99.90
15426;DHT22;7812;50.072;7.036;2023-07-31T03:31:34;16.50;99.90
15426;DHT22;7812;50.072;7.036;2023-07-31T03:33:59;16.50;99.90
15426;DHT22;7812;50.072;7.036;2023-07-31T03:36:25;16.60;99.90
15426;DHT22;7812;50.072;7.036;2023-07-31T03:38:52;16.60;99.90
15426;DHT22;7812;50.072;7.036;2023-07-31T03:41:17;16.60;99.90
15426;DHT22;7812;50.072;7.036;2023-07-31T03:43:45;16.60;99.90
15426;DHT22;7812;50.072;7.036;2023-07-31T03:46:10;16.70;99.90
15426;DHT22;7812;50.072;7.036;2023-07-31T03:48:36;16.70;99.90
15426;DHT22;7812;50.072;7.036;2023-07-31T03:51:02;16.70;99.90
15426;DHT22;7812;50.072;7.036;2023-07-31T03:53:27;16.70;99.90
15426;DHT22;7812;50.072;7.036;2023-07-31T03:55:53;16.70;99.90
15426;DHT22;7812;50.072;7.036;2023-07-31T03:58:18;16.80;99.90
15426;DHT22;7812;50.072;7.036;2023-07-31T04:00:45;16.80;99.90
15426;DHT22;7812;50.072;7.036;2023-07-31T04:03:11;16.80;99.90
15426;DHT22;7812;50.072;7.036;2023-07-31T04:05:38;16.80;99.90
15426;DHT22;7812;50.072;7.036;2023-07-31T04:08:05;16.80;99.90
15426;DHT22;7812;50.072;7.036;2023-07-31T04:10:30;16.70;99.90
15426;DHT22;7812;50.072;7.036;2023-07-31T04:12:59;16.80;99.90
15426;DHT22;7812;50.072;7.036;2023-07-31T04:15:24;16.80;99.90
15426;DHT22;7812;50.072;7.036;2023-07-31T04:17:50;16.80;99.90
15426;DHT22;7812;50.072;7.036;2023-07-31T04:20:16;16.70;99.90
15426;DHT22;7812;50.072;7.036;2023-07-31T04:22:41;16.70;99.90
15426;DHT22;7812;50.072;7.036;2023-07-31T04:25:07;16.70;99.90
15426;DHT22;7812;50.072;7.036;2023-07-31T04:27:33;16.70;99.90
15426;DHT22;7812;50.072;7.036;2023-07-31T04:29:58;16.70;99.90
15426;DHT22;7812;50.072;7.036;2023-07-31T04:32:24;16.70;99.90
15426;DHT22;7812;50.072;7.036;2023-07-31T04:34:49;16.70;99.90
15426;DHT22;7812;50.072;7.036;2023-07-31T04:37:15;16.70;99.90
15426;DHT22;7812;50.072;7.036;2023-07-31T04:39:41;16.70;99.90
15426;DHT22;7812;50.072;7.036;2023-07-31T04:42:06;16.70;99.90
15426;DHT22;7812;50.072;7.036;2023-07-31T04:44:32;16.60;99.90
15426;DHT22;7812;50.072;7.036;2023-07-31T04:46:58;16.70;99.90
15426;DHT22;7812;50.072;7.036;2023-07-31T04:49:23;16.80;99.90
15426;DHT22;7812;50.072;7.036;2023-07-31T04:51:49;16.80;99.90
15426;DHT22;7812;50.072;7.036;2023-07-31T04:54:15;16.80;99.90
15426;DHT22;7812;50.072;7.036;2023-07-31T04:56:41;16.90;99.90
15426;DHT22;7812;50.072;7.036;2023-07-31T04:59:06;16.90;99.90
15426;DHT22;7812;50.072;7.036;2023-07-31T05:01:32;16.90;99.90
15426;DHT22;7812;50.072;7.036;2023-07-31T05:03:58;16.90;99.90
15426;DHT22;7812;50.072;7.036;2023-07-31T05:06:23;17.00;99.90
15426;DHT22;7812;50.072;7.036;2023-07-31T05:08:49;17.10;99.90
15426;DHT22;7812;50.072;7.036;2023-07-31T05:11:15;17.10;99.90
15426;DHT22;7812;50.072;7.036;2023-07-31T05:13:40;17.20;99.90
15426;DHT22;7812;50.072;7.036;2023-07-31T05:16:06;17.20;99.90
15426;DHT22;7812;50.072;7.036;2023-07-31T05:18:32;17.30;99.90
15426;DHT22;7812;50.072;7.036;2023-07-31T05:20:57;17.20;99.90
15426;DHT22;7812;50.072;7.036;2023-07-31T05:23:23;17.20;99.90
15426;DHT22;7812;50.072;7.036;2023-07-31T05:25:49;17.20;99.90
15426;DHT22;7812;50.072;7.036;2023-07-31T05:28:14;17.20;99.90
15426;DHT22;7812;50.072;7.036;2023-07-31T05:30:40;17.20;99.90
15426;DHT22;7812;50.072;7.036;2023-07-31T05:33:05;17.20;99.90
15426;DHT22;7812;50.072;7.036;2023-07-31T05:35:32;17.20;99.90
15426;DHT22;7812;50.072;7.036;2023-07-31T05:37:58;17.20;99.90
15426;DHT22;7812;50.072;7.036;2023-07-31T05:40:23;17.20;99.90
15426;DHT22;7812;50.072;7.036;2023-07-31T05:42:49;17.10;99.90
15426;DHT22;7812;50.072;7.036;2023-07-31T05:45:15;17.10;99.90
15426;DHT22;7812;50.072;7.036;2023-07-31T05:47:40;17.10;99.90
15426;DHT22;7812;50.072;7.036;2023-07-31T05:50:06;17.20;99.90
15426;DHT22;7812;50.072;7.036;2023-07-31T05:52:32;17.20;99.90
15426;DHT22;7812;50.072;7.036;2023-07-31T05:54:58;17.30;99.90
15426;DHT22;7812;50.072;7.036;2023-07-31T05:57:23;17.40;99.90
15426;DHT22;7812;50.072;7.036;2023-07-31T05:59:49;17.40;99.90
15426;DHT22;7812;50.072;7.036;2023-07-31T06:02:15;17.60;99.90
15426;DHT22;7812;50.072;7.036;2023-07-31T06:04:41;17.70;99.90
15426;DHT22;7812;50.072;7.036;2023-07-31T06:07:07;17.80;99.90
15426;DHT22;7812;50.072;7.036;2023-07-31T06:09:32;17.90;99.90
15426;DHT22;7812;50.072;7.036;2023-07-31T06:11:58;17.90;99.90
15426;DHT22;7812;50.072;7.036;2023-07-31T06:14:24;18.10;99.90
15426;DHT22;7812;50.072;7.036;2023-07-31T06:16:49;18.20;99.90
15426;DHT22;7812;50.072;7.036;2023-07-31T06:19:15;18.30;99.90
15426;DHT22;7812;50.072;7.036;2023-07-31T06:21:41;18.30;99.90
15426;DHT22;7812;50.072;7.036;2023-07-31T06:24:08;18.30;99.90
15426;DHT22;7812;50.072;7.036;2023-07-31T06:26:37;18.20;99.90
15426;DHT22;7812;50.072;7.036;2023-07-31T06:29:02;18.30;99.90
15426;DHT22;7812;50.072;7.036;2023-07-31T06:31:28;18.40;99.90
15426;DHT22;7812;50.072;7.036;2023-07-31T06:33:54;18.70;99.90
15426;DHT22;7812;50.072;7.036;2023-07-31T06:36:20;18.80;99.90
15426;DHT22;7812;50.072;7.036;2023-07-31T06:38:45;18.80;99.90
15426;DHT22;7812;50.072;7.036;2023-07-31T06:41:11;18.80;99.90
15426;DHT22;7812;50.072;7.036;2023-07-31T06:43:37;18.60;99.90
15426;DHT22;7812;50.072;7.036;2023-07-31T06:46:06;18.60;99.90
15426;DHT22;7812;50.072;7.036;2023-07-31T06:48:33;18.60;99.90
15426;DHT22;7812;50.072;7.036;2023-07-31T06:50:59;18.60;99.90
15426;DHT22;7812;50.072;7.036;2023-07-31T06:53:24;18.80;99.90
15426;DHT22;7812;50.072;7.036;2023-07-31T06:55:50;19.10;99.90
15426;DHT22;7812;50.072;7.036;2023-07-31T06:58:17;19.20;99.90
15426;DHT22;7812;50.072;7.036;2023-07-31T07:00:43;19.20;99.90
15426;DHT22;7812;50.072;7.036;2023-07-31T07:03:09;19.00;99.90
15426;DHT22;7812;50.072;7.036;2023-07-31T07:05:34;18.90;99.90
15426;DHT22;7812;50.072;7.036;2023-07-31T07:08:00;18.90;99.90
15426;DHT22;7812;50.072;7.036;2023-07-31T07:10:26;19.10;99.90
15426;DHT22;7812;50.072;7.036;2023-07-31T07:12:52;19.40;99.90
15426;DHT22;7812;50.072;7.036;2023-07-31T07:15:18;19.90;99.90
15426;DHT22;7812;50.072;7.036;2023-07-31T07:17:44;19.90;99.90
15426;DHT22;7812;50.072;7.036;2023-07-31T07:20:12;19.90;99.90
15426;DHT22;7812;50.072;7.036;2023-07-31T07:22:38;19.80;99.90
15426;DHT22;7812;50.072;7.036;2023-07-31T07:25:04;19.70;99.90
15426;DHT22;7812;50.072;7.036;2023-07-31T07:27:30;19.70;99.90
15426;DHT22;7812;50.072;7.036;2023-07-31T07:29:56;19.50;99.90
15426;DHT22;7812;50.072;7.036;2023-07-31T07:32:21;19.40;99.90
15426;DHT22;7812;50.072;7.036;2023-07-31T07:34:48;19.10;99.90
15426;DHT22;7812;50.072;7.036;2023-07-31T07:37:14;19.00;99.90
15426;DHT22;7812;50.072;7.036;2023-07-31T07:39:39;18.90;99.90
15426;DHT22;7812;50.072;7.036;2023-07-31T07:42:05;19.00;99.90
15426;DHT22;7812;50.072;7.036;2023-07-31T07:44:31;19.20;99.90
15426;DHT22;7812;50.072;7.036;2023-07-31T07:46:57;19.40;99.90
15426;DHT22;7812;50.072;7.036;2023-07-31T07:49:23;19.50;99.90
15426;DHT22;7812;50.072;7.036;2023-07-31T07:51:49;19.60;99.90
15426;DHT22;7812;50.072;7.036;2023-07-31T07:54:15;19.90;99.90
15426;DHT22;7812;50.072;7.036;2023-07-31T07:56:42;20.00;99.90
15426;DHT22;7812;50.072;7.036;2023-07-31T07:59:08;19.90;99.90
15426;DHT22;7812;50.072;7.036;2023-07-31T08:01:34;20.00;99.90
15426;DHT22;7812;50.072;7.036;2023-07-31T08:03:59;19.80;99.90
15426;DHT22;7812;50.072;7.036;2023-07-31T08:06:25;19.70;99.90
15426;DHT22;7812;50.072;7.036;2023-07-31T08:08:51;19.40;99.90
15426;DHT22;7812;50.072;7.036;2023-07-31T08:11:16;19.30;99.90
15426;DHT22;7812;50.072;7.036;2023-07-31T08:13:42;19.40;99.90
15426;DHT22;7812;50.072;7.036;2023-07-31T08:16:07;19.40;99.90
15426;DHT22;7812;50.072;7.036;2023-07-31T08:18:34;19.60;99.90
15426;DHT22;7812;50.072;7.036;2023-07-31T08:21:04;19.70;99.90
15426;DHT22;7812;50.072;7.036;2023-07-31T08:23:30;19.70;99.90
15426;DHT22;7812;50.072;7.036;2023-07-31T08:25:56;19.60;99.90
15426;DHT22;7812;50.072;7.036;2023-07-31T08:28:21;19.50;99.90
15426;DHT22;7812;50.072;7.036;2023-07-31T08:30:47;19.40;99.90
15426;DHT22;7812;50.072;7.036;2023-07-31T08:33:12;19.40;99.90
15426;DHT22;7812;50.072;7.036;2023-07-31T08:35:38;19.50;99.90
15426;DHT22;7812;50.072;7.036;2023-07-31T08:38:04;19.60;99.90
15426;DHT22;7812;50.072;7.036;2023-07-31T08:40:29;19.70;99.90
15426;DHT22;7812;50.072;7.036;2023-07-31T08:42:55;19.90;99.90
15426;DHT22;7812;50.072;7.036;2023-07-31T08:45:28;20.30;99.90
15426;DHT22;7812;50.072;7.036;2023-07-31T08:47:55;20.70;99.90
15426;DHT22;7812;50.072;7.036;2023-07-31T08:50:21;20.60;99.90
15426;DHT22;7812;50.072;7.036;2023-07-31T08:52:49;20.50;99.90
15426;DHT22;7812;50.072;7.036;2023-07-31T08:55:15;20.50;99.90
15426;DHT22;7812;50.072;7.036;2023-07-31T08:57:42;20.70;99.90
15426;DHT22;7812;50.072;7.036;2023-07-31T09:00:09;20.70;99.90
15426;DHT22;7812;50.072;7.036;2023-07-31T09:03:07;20.70;99.90
15426;DHT22;7812;50.072;7.036;2023-07-31T09:05:31;20.80;99.90
15426;DHT22;7812;50.072;7.036;2023-07-31T09:07:57;21.30;99.90
15426;DHT22;7812;50.072;7.036;2023-07-31T09:10:23;21.30;99.90
15426;DHT22;7812;50.072;7.036;2023-07-31T09:12:51;22.50;99.90
15426;DHT22;7812;50.072;7.036;2023-07-31T09:15:17;22.90;99.90
15426;DHT22;7812;50.072;7.036;2023-07-31T09:17:43;22.90;99.90
15426;DHT22;7812;50.072;7.036;2023-07-31T09:20:20;23.60;99.90
15426;DHT22;7812;50.072;7.036;2023-07-31T09:22:47;24.40;99.90
15426;DHT22;7812;50.072;7.036;2023-07-31T09:25:18;23.90;99.90
15426;DHT22;7812;50.072;7.036;2023-07-31T09:28:07;23.40;99.90
15426;DHT22;7812;50.072;7.036;2023-07-31T09:30:50;24.20;99.90
15426;DHT22;7812;50.072;7.036;2023-07-31T09:33:17;24.30;99.90
15426;DHT22;7812;50.072;7.036;2023-07-31T09:35:43;23.90;99.90
15426;DHT22;7812;50.072;7.036;2023-07-31T09:38:13;23.60;99.90
15426;DHT22;7812;50.072;7.036;2023-07-31T09:40:41;23.30;99.90
15426;DHT22;7812;50.072;7.036;2023-07-31T09:43:12;23.60;99.90
15426;DHT22;7812;50.072;7.036;2023-07-31T09:45:40;24.50;99.90
15426;DHT22;7812;50.072;7.036;2023-07-31T09:48:16;24.80;99.90
15426;DHT22;7812;50.072;7.036;2023-07-31T09:50:43;23.90;99.90
15426;DHT22;7812;50.072;7.036;2023-07-31T09:53:10;22.60;99.90
15426;DHT22;7812;50.072;7.036;2023-07-31T09:55:37;22.50;99.90
15426;DHT22;7812;50.072;7.036;2023-07-31T09:58:07;22.50;99.90
15426;DHT22;7812;50.072;7.036;2023-07-31T10:00:34;22.30;99.90
15426;DHT22;7812;50.072;7.036;2023-07-31T10:03:01;22.20;99.90
15426;DHT22;7812;50.072;7.036;2023-07-31T10:05:34;22.10;99.90
15426;DHT22;7812;50.072;7.036;2023-07-31T10:07:59;22.40;99.90
15426;DHT22;7812;50.072;7.036;2023-07-31T10:10:26;22.50;99.90
15426;DHT22;7812;50.072;7.036;2023-07-31T10:12:53;22.40;99.90
15426;DHT22;7812;50.072;7.036;2023-07-31T10:15:19;22.20;99.90
15426;DHT22;7812;50.072;7.036;2023-07-31T10:17:49;23.20;99.90
15426;DHT22;7812;50.072;7.036;2023-07-31T10:20:16;24.60;99.90
15426;DHT22;7812;50.072;7.036;2023-07-31T10:22:47;24.20;99.90
15426;DHT22;7812;50.072;7.036;2023-07-31T10:25:13;24.30;99.90
15426;DHT22;7812;50.072;7.036;2023-07-31T10:27:40;24.20;99.90
15426;DHT22;7812;50.072;7.036;2023-07-31T10:30:08;23.90;99.90
15426;DHT22;7812;50.072;7.036;2023-07-31T10:32:37;23.20;99.90
15426;DHT22;7812;50.072;7.036;2023-07-31T10:35:04;22.30;99.90
15426;DHT22;7812;50.072;7.036;2023-07-31T10:40:27;22.20;99.90
15426;DHT22;7812;50.072;7.036;2023-07-31T10:42:57;22.50;99.90
15426;DHT22;7812;50.072;7.036;2023-07-31T10:50:31;22.10;99.90
15426;DHT22;7812;50.072;7.036;2023-07-31T10:53:00;22.40;99.90
15426;DHT22;7812;50.072;7.036;2023-07-31T10:55:41;22.10;99.90
15426;DHT22;7812;50.072;7.036;2023-07-31T10:58:12;21.50;99.90
15426;DHT22;7812;50.072;7.036;2023-07-31T11:00:42;21.40;99.90
15426;DHT22;7812;50.072;7.036;2023-07-31T11:05:59;21.20;99.90
15426;DHT22;7812;50.072;7.036;2023-07-31T11:08:26;21.10;99.90
15426;DHT22;7812;50.072;7.036;2023-07-31T11:11:12;21.10;99.90
15426;DHT22;7812;50.072;7.036;2023-07-31T11:13:49;21.20;99.90
15426;DHT22;7812;50.072;7.036;2023-07-31T11:16:15;21.30;99.90
15426;DHT22;7812;50.072;7.036;2023-07-31T11:18:43;21.50;99.90
15426;DHT22;7812;50.072;7.036;2023-07-31T11:21:20;21.50;99.90
15426;DHT22;7812;50.072;7.036;2023-07-31T11:23:48;21.50;99.90
15426;DHT22;7812;50.072;7.036;2023-07-31T11:26:14;21.50;99.90
15426;DHT22;7812;50.072;7.036;2023-07-31T11:28:40;21.50;99.90
15426;DHT22;7812;50.072;7.036;2023-07-31T11:31:09;21.20;99.90
15426;DHT22;7812;50.072;7.036;2023-07-31T11:33:35;21.10;99.90
15426;DHT22;7812;50.072;7.036;2023-07-31T11:36:02;21.10;99.90
15426;DHT22;7812;50.072;7.036;2023-07-31T11:38:30;21.30;99.90
15426;DHT22;7812;50.072;7.036;2023-07-31T11:40:57;21.30;99.90
15426;DHT22;7812;50.072;7.036;2023-07-31T11:43:24;21.40;99.90
15426;DHT22;7812;50.072;7.036;2023-07-31T11:45:52;21.40;99.90
15426;DHT22;7812;50.072;7.036;2023-07-31T11:48:26;21.70;99.90
15426;DHT22;7812;50.072;7.036;2023-07-31T11:50:54;21.60;99.90
15426;DHT22;7812;50.072;7.036;2023-07-31T11:53:50;22.00;99.90
15426;DHT22;7812;50.072;7.036;2023-07-31T11:56:18;22.30;99.90
15426;DHT22;7812;50.072;7.036;2023-07-31T11:58:57;22.20;99.90
15426;DHT22;7812;50.072;7.036;2023-07-31T12:01:23;22.20;99.90
15426;DHT22;7812;50.072;7.036;2023-07-31T12:03:50;22.30;99.90
15426;DHT22;7812;50.072;7.036;2023-07-31T12:06:16;22.10;99.90
15426;DHT22;7812;50.072;7.036;2023-07-31T12:08:42;22.40;99.90
15426;DHT22;7812;50.072;7.036;2023-07-31T12:11:09;22.70;99.90
15426;DHT22;7812;50.072;7.036;2023-07-31T12:13:35;22.60;99.90
15426;DHT22;7812;50.072;7.036;2023-07-31T12:16:02;22.20;99.90
15426;DHT22;7812;50.072;7.036;2023-07-31T12:18:32;21.70;99.90
15426;DHT22;7812;50.072;7.036;2023-07-31T12:21:00;21.50;99.90
15426;DHT22;7812;50.072;7.036;2023-07-31T12:23:31;21.40;99.90
15426;DHT22;7812;50.072;7.036;2023-07-31T12:26:07;21.10;99.90
15426;DHT22;7812;50.072;7.036;2023-07-31T12:28:37;20.80;99.90
15426;DHT22;7812;50.072;7.036;2023-07-31T12:31:04;20.50;99.90
15426;DHT22;7812;50.072;7.036;2023-07-31T12:33:34;20.40;99.90
15426;DHT22;7812;50.072;7.036;2023-07-31T12:36:09;20.40;99.90
15426;DHT22;7812;50.072;7.036;2023-07-31T12:38:36;20.00;99.90
15426;DHT22;7812;50.072;7.036;2023-07-31T12:41:01;19.80;99.90
15426;DHT22;7812;50.072;7.036;2023-07-31T12:43:27;19.50;99.90
15426;DHT22;7812;50.072;7.036;2023-07-31T12:45:54;19.40;99.90
15426;DHT22;7812;50.072;7.036;2023-07-31T12:48:20;19.30;99.90
15426;DHT22;7812;50.072;7.036;2023-07-31T12:50:46;19.10;99.90
15426;DHT22;7812;50.072;7.036;2023-07-31T12:53:11;18.90;99.90
15426;DHT22;7812;50.072;7.036;2023-07-31T12:55:37;18.80;99.90
15426;DHT22;7812;50.072;7.036;2023-07-31T12:58:03;18.90;99.90
15426;DHT22;7812;50.072;7.036;2023-07-31T13:00:31;18.80;99.90
15426;DHT22;7812;50.072;7.036;2023-07-31T13:02:57;18.90;99.90
15426;DHT22;7812;50.072;7.036;2023-07-31T13:05:23;19.00;99.90
15426;DHT22;7812;50.072;7.036;2023-07-31T13:07:49;19.00;99.90
15426;DHT22;7812;50.072;7.036;2023-07-31T13:10:15;19.00;99.90
15426;DHT22;7812;50.072;7.036;2023-07-31T13:12:41;19.20;99.90
15426;DHT22;7812;50.072;7.036;2023-07-31T13:15:07;19.30;99.90
15426;DHT22;7812;50.072;7.036;2023-07-31T13:17:33;19.30;99.90
15426;DHT22;7812;50.072;7.036;2023-07-31T13:19:59;19.30;99.90
15426;DHT22;7812;50.072;7.036;2023-07-31T13:22:25;19.60;99.90
15426;DHT22;7812;50.072;7.036;2023-07-31T13:24:50;19.90;99.90
15426;DHT22;7812;50.072;7.036;2023-07-31T13:27:16;19.80;99.90
15426;DHT22;7812;50.072;7.036;2023-07-31T13:29:44;19.70;99.90
15426;DHT22;7812;50.072;7.036;2023-07-31T13:32:11;19.20;99.90
15426;DHT22;7812;50.072;7.036;2023-07-31T13:34:37;18.90;99.90
15426;DHT22;7812;50.072;7.036;2023-07-31T13:37:03;18.80;99.90
15426;DHT22;7812;50.072;7.036;2023-07-31T13:39:29;18.90;99.90
15426;DHT22;7812;50.072;7.036;2023-07-31T13:41:54;19.10;99.90
15426;DHT22;7812;50.072;7.036;2023-07-31T13:44:20;19.10;99.90
15426;DHT22;7812;50.072;7.036;2023-07-31T13:46:46;19.20;99.90
15426;DHT22;7812;50.072;7.036;2023-07-31T13:49:12;19.10;99.90
15426;DHT22;7812;50.072;7.036;2023-07-31T13:51:37;19.10;99.90
15426;DHT22;7812;50.072;7.036;2023-07-31T13:54:04;19.10;99.90
15426;DHT22;7812;50.072;7.036;2023-07-31T13:56:32;19.20;99.90
15426;DHT22;7812;50.072;7.036;2023-07-31T13:58:58;19.10;99.90
15426;DHT22;7812;50.072;7.036;2023-07-31T14:01:23;18.90;99.90
15426;DHT22;7812;50.072;7.036;2023-07-31T14:03:49;18.80;99.90
15426;DHT22;7812;50.072;7.036;2023-07-31T14:06:15;18.80;99.90
15426;DHT22;7812;50.072;7.036;2023-07-31T14:08:41;18.90;99.90
15426;DHT22;7812;50.072;7.036;2023-07-31T14:11:06;19.20;99.90
15426;DHT22;7812;50.072;7.036;2023-07-31T14:13:32;19.20;99.90
15426;DHT22;7812;50.072;7.036;2023-07-31T14:15:57;19.10;99.90
15426;DHT22;7812;50.072;7.036;2023-07-31T14:18:23;18.90;99.90
15426;DHT22;7812;50.072;7.036;2023-07-31T14:20:49;18.90;99.90
15426;DHT22;7812;50.072;7.036;2023-07-31T14:23:14;18.90;99.90
15426;DHT22;7812;50.072;7.036;2023-07-31T14:25:41;18.70;99.90
15426;DHT22;7812;50.072;7.036;2023-07-31T14:28:06;18.50;99.90
15426;DHT22;7812;50.072;7.036;2023-07-31T14:30:32;18.40;99.90
15426;DHT22;7812;50.072;7.036;2023-07-31T14:32:58;18.40;99.90
15426;DHT22;7812;50.072;7.036;2023-07-31T14:35:26;18.50;99.90
15426;DHT22;7812;50.072;7.036;2023-07-31T14:37:51;18.50;99.90
15426;DHT22;7812;50.072;7.036;2023-07-31T14:40:17;18.40;99.90
15426;DHT22;7812;50.072;7.036;2023-07-31T14:42:42;18.40;99.90
15426;DHT22;7812;50.072;7.036;2023-07-31T14:45:09;18.30;99.90
15426;DHT22;7812;50.072;7.036;2023-07-31T14:47:36;18.20;99.90
15426;DHT22;7812;50.072;7.036;2023-07-31T14:50:01;18.10;99.90
15426;DHT22;7812;50.072;7.036;2023-07-31T14:52:27;17.90;99.90
15426;DHT22;7812;50.072;7.036;2023-07-31T14:54:53;17.80;99.90
15426;DHT22;7812;50.072;7.036;2023-07-31T14:57:19;17.80;99.90
15426;DHT22;7812;50.072;7.036;2023-07-31T14:59:46;17.80;99.90
15426;DHT22;7812;50.072;7.036;2023-07-31T15:02:12;17.90;99.90
15426;DHT22;7812;50.072;7.036;2023-07-31T15:04:37;18.00;99.90
15426;DHT22;7812;50.072;7.036;2023-07-31T15:07:03;18.00;99.90
15426;DHT22;7812;50.072;7.036;2023-07-31T15:09:29;18.00;99.90
15426;DHT22;7812;50.072;7.036;2023-07-31T15:11:56;18.00;99.90
15426;DHT22;7812;50.072;7.036;2023-07-31T15:14:23;18.10;99.90
15426;DHT22;7812;50.072;7.036;2023-07-31T15:16:49;18.10;99.90
15426;DHT22;7812;50.072;7.036;2023-07-31T15:19:15;18.20;99.90
15426;DHT22;7812;50.072;7.036;2023-07-31T15:21:41;18.20;99.90
15426;DHT22;7812;50.072;7.036;2023-07-31T15:24:07;18.30;99.90
15426;DHT22;7812;50.072;7.036;2023-07-31T15:26:33;18.50;99.90
15426;DHT22;7812;50.072;7.036;2023-07-31T15:29:04;18.70;99.90
15426;DHT22;7812;50.072;7.036;2023-07-31T15:31:34;18.90;99.90
15426;DHT22;7812;50.072;7.036;2023-07-31T15:34:00;19.00;99.90
15426;DHT22;7812;50.072;7.036;2023-07-31T15:36:25;19.10;99.90
15426;DHT22;7812;50.072;7.036;2023-07-31T15:38:51;19.10;99.90
15426;DHT22;7812;50.072;7.036;2023-07-31T15:41:18;19.00;99.90
15426;DHT22;7812;50.072;7.036;2023-07-31T15:43:44;19.00;99.90
15426;DHT22;7812;50.072;7.036;2023-07-31T15:46:10;18.90;99.90
15426;DHT22;7812;50.072;7.036;2023-07-31T15:48:35;18.90;99.90
15426;DHT22;7812;50.072;7.036;2023-07-31T15:51:01;18.90;99.90
15426;DHT22;7812;50.072;7.036;2023-07-31T15:53:28;18.60;99.90
15426;DHT22;7812;50.072;7.036;2023-07-31T15:55:54;18.40;99.90
15426;DHT22;7812;50.072;7.036;2023-07-31T15:58:20;18.20;99.90
15426;DHT22;7812;50.072;7.036;2023-07-31T16:00:46;18.10;99.90